Portada
METAR-TAF:

METAR-TAF

Aeroports :

Hohhot, Xina

latitud: 40-49N, longitud: 111-41E, altitud: 1065 m

Observació

L'informe es va fer fa 43 minuts, a les 00:00 UTC
Vent 4 kt del Nord-Est, variant entre Nord-Oest i Est/Nord-Est
Temperatura -3°C
Humitat 93%
Pressió 1015 hPa
Visibilitat: 3000 m
boirina

METAR: ZBHH 220000Z 04002MPS 320V060 3000 BR NSC M03/M04 Q1015 NOSIG

Hora: 08:43 (00:43 UTC)

Pronòstic

L'informe es va fer fa 5 hores i 42 minuts, a les 19:01 UTC
Pronòstic vàlid del 22 a les 00 UTC al 22 a les 24 UTC
Vent 8 kt del Sud-Oest
Visibilitat: 4000 m
Escasses núvols a una alçada de 4000 ft
boirina

TAF: ZBHH 211901Z 2200/2224 23004MPS 4000 BR FEW040 TX06/2207Z TNM06/23Z

Observacions i pronòstics meteorològics de més de 4000 aeroports (METAR i TAF).

Les estacions disponibles són els punts grocs i vermells al mapa.

Posi el ratolí al punt desitjat per veure el nom de l'estació.

Feu clic per veure les observacions i els pronòstics meteorològics.

Per canviar el mapa: feu clic els botons verds amb una creu de color negre per apropar; al botó verd amb un guió per allunyar la imatge; o en les fletxes verdes per a mapes adjacents.


METAR-TAF: